Time;durP1;ratioP1;P1;durP2;ratioP2;P2;SDS_P1;SDS_P2;PMS_P1;PMS_P2;Temp;Humidity;BMP_temperature;BMP_pressure;BME280_temperature;BME280_humidity;BME280_pressure;Samples;Min_cycle;Max_cycle;Signal;HPM_P1;HPM_P2
2023/07/20 00:01:44;;;;;;;7.72;2.88;;;19.90;90.90;;;;;;4133478;28;20120;-51
2023/07/20 00:03:54;;;;;;;6.97;2.63;;;19.90;90.90;;;;;;4133023;28;20137;-51
2023/07/20 00:05:57;;;;;;;9.50;2.20;;;19.90;91.00;;;;;;4123192;28;20042;-51
2023/07/20 00:07:59;;;;;;;6.95;2.65;;;19.80;91.10;;;;;;4132562;28;20445;-52
2023/07/20 00:10:01;;;;;;;7.93;3.00;;;19.80;91.10;;;;;;4133201;28;20490;-52
2023/07/20 00:12:03;;;;;;;14.20;2.80;;;19.80;91.20;;;;;;4132323;28;20080;-51
2023/07/20 00:14:06;;;;;;;8.93;2.45;;;19.80;91.20;;;;;;4132852;28;20074;-52
2023/07/20 00:16:08;;;;;;;9.82;2.90;;;19.80;91.30;;;;;;4133246;28;20413;-51
2023/07/20 00:18:10;;;;;;;6.82;1.98;;;19.80;91.20;;;;;;4132173;28;20462;-51
2023/07/20 00:20:14;;;;;;;7.53;2.88;;;19.80;91.20;;;;;;4115688;28;20411;-51
2023/07/20 00:22:16;;;;;;;7.68;2.80;;;19.70;91.30;;;;;;4129270;28;20064;-51
2023/07/20 00:24:18;;;;;;;8.75;2.72;;;19.70;91.30;;;;;;4133231;28;20481;-52
2023/07/20 00:26:20;;;;;;;5.20;2.88;;;19.70;91.50;;;;;;4132930;28;20087;-53
2023/07/20 00:28:23;;;;;;;10.30;2.70;;;19.70;91.60;;;;;;4132159;28;20117;-52
2023/07/20 00:30:25;;;;;;;9.55;2.88;;;19.60;91.50;;;;;;4132985;28;20050;-52
2023/07/20 00:32:27;;;;;;;7.57;2.53;;;19.60;91.50;;;;;;4132716;28;20105;-51
2023/07/20 00:34:29;;;;;;;7.68;2.65;;;19.60;91.50;;;;;;4132823;28;20074;-52
2023/07/20 00:36:32;;;;;;;7.40;2.90;;;19.50;91.70;;;;;;4132843;28;20081;-52
2023/07/20 00:38:34;;;;;;;9.23;2.95;;;19.50;91.80;;;;;;4132090;28;20429;-51
2023/07/20 00:40:37;;;;;;;8.05;2.65;;;19.50;91.80;;;;;;4132635;28;20078;-51
2023/07/20 00:42:39;;;;;;;9.90;2.85;;;19.50;91.80;;;;;;4132933;28;20129;-52
2023/07/20 00:44:41;;;;;;;5.72;2.70;;;19.50;91.70;;;;;;4132834;28;20070;-51
2023/07/20 00:46:43;;;;;;;8.63;2.78;;;19.50;91.80;;;;;;4132522;28;20038;-51
2023/07/20 00:48:46;;;;;;;10.07;2.97;;;19.50;92.00;;;;;;4131944;28;20064;-52
2023/07/20 00:50:48;;;;;;;7.35;2.85;;;19.50;92.20;;;;;;4132660;28;20042;-52
2023/07/20 00:52:52;;;;;;;7.80;3.03;;;19.50;92.00;;;;;;4132691;28;20485;-52
2023/07/20 00:54:56;;;;;;;4.95;2.15;;;19.50;92.20;;;;;;4132720;28;20057;-50
2023/07/20 00:57:00;;;;;;;7.07;2.70;;;19.40;92.20;;;;;;4132342;28;20042;-52
2023/07/20 00:59:03;;;;;;;13.23;2.90;;;19.50;92.10;;;;;;4131628;28;20490;-51
2023/07/20 01:01:05;;;;;;;7.78;2.50;;;19.40;92.30;;;;;;4132010;28;20406;-51
2023/07/20 01:03:10;;;;;;;6.97;2.65;;;19.40;92.40;;;;;;4132540;28;20629;-51
2023/07/20 01:05:16;;;;;;;9.77;2.75;;;19.40;92.30;;;;;;4131418;28;20053;-52
2023/07/20 01:07:26;;;;;;;6.68;2.42;;;19.40;92.40;;;;;;4132080;28;20074;-51
2023/07/20 01:09:39;;;;;;;11.52;3.03;;;19.40;92.40;;;;;;4115710;28;20116;-51
2023/07/20 01:11:49;;;;;;;5.72;2.47;;;19.40;92.40;;;;;;4126137;28;20084;-53
2023/07/20 01:13:51;;;;;;;6.72;2.53;;;19.30;92.60;;;;;;4132742;28;20133;-52
2023/07/20 01:15:59;;;;;;;8.68;2.67;;;19.20;92.60;;;;;;4132224;28;20133;-52
2023/07/20 01:18:01;;;;;;;6.22;2.63;;;19.30;92.60;;;;;;4132145;28;20049;-55
2023/07/20 01:20:07;;;;;;;7.85;2.85;;;19.20;92.60;;;;;;4132832;28;20054;-52
2023/07/20 01:22:21;;;;;;;7.68;2.53;;;19.20;92.70;;;;;;4115336;28;20050;-49
2023/07/20 01:24:50;;;;;;;8.65;3.00;;;19.30;92.70;;;;;;4132640;28;20121;-52
2023/07/20 01:27:20;;;;;;;8.25;3.10;;;19.20;92.70;;;;;;4050407;29;20144;-50
2023/07/20 01:29:41;;;;;;;8.90;2.90;;;19.20;92.80;;;;;;4050036;29;20118;-51
2023/07/20 01:31:46;;;;;;;9.68;3.28;;;19.10;92.80;;;;;;4050885;29;20108;-51
2023/07/20 01:33:50;;;;;;;;;;;19.10;93.10;;;;;;4046610;29;20049;-53
2023/07/20 01:35:59;;;;;;;6.97;2.38;;;19.00;93.10;;;;;;4036069;29;19931;-53
2023/07/20 01:38:02;;;;;;;6.05;2.97;;;18.90;93.10;;;;;;4050031;29;20116;-54
2023/07/20 01:40:10;;;;;;;9.10;2.83;;;18.90;93.10;;;;;;4051369;29;20055;-52
2023/07/20 01:42:13;;;;;;;8.95;2.70;;;18.90;93.40;;;;;;4051466;29;20076;-51
2023/07/20 01:44:15;;;;;;;8.43;2.85;;;18.90;93.50;;;;;;4051145;29;20055;-51
2023/07/20 01:46:17;;;;;;;5.22;2.40;;;18.90;93.40;;;;;;4051490;29;20477;-54
2023/07/20 01:48:20;;;;;;;7.82;2.67;;;18.80;93.60;;;;;;4049772;29;20500;-51
2023/07/20 01:50:22;;;;;;;5.75;3.03;;;18.80;93.50;;;;;;4035125;29;20049;-51
2023/07/20 01:52:24;;;;;;;10.00;3.05;;;18.90;93.50;;;;;;4050516;29;20072;-53
2023/07/20 01:54:26;;;;;;;6.18;2.67;;;18.90;93.70;;;;;;4050594;29;20055;-55
2023/07/20 01:56:29;;;;;;;8.38;2.63;;;18.90;93.60;;;;;;4051536;29;20064;-53
2023/07/20 01:58:31;;;;;;;5.40;2.40;;;18.90;93.70;;;;;;4049818;29;20056;-54
2023/07/20 02:00:33;;;;;;;6.72;2.97;;;18.90;93.70;;;;;;4050836;29;20536;-54
2023/07/20 02:02:35;;;;;;;9.35;2.80;;;18.90;93.90;;;;;;4050647;29;20048;-54
2023/07/20 02:04:38;;;;;;;7.65;2.88;;;18.90;93.70;;;;;;4104808;28;20082;-53
2023/07/20 02:06:40;;;;;;;8.45;3.05;;;18.90;93.80;;;;;;4131000;28;20517;-55
2023/07/20 02:08:43;;;;;;;8.32;2.58;;;18.80;93.90;;;;;;4130743;28;20046;-54
2023/07/20 02:10:47;;;;;;;9.93;2.80;;;18.80;93.90;;;;;;4132165;28;20526;-51
2023/07/20 02:12:49;;;;;;;10.45;2.67;;;18.80;94.00;;;;;;4131489;28;20421;-49
2023/07/20 02:14:51;;;;;;;8.77;2.80;;;18.80;93.90;;;;;;4132079;28;20052;-49
2023/07/20 02:16:57;;;;;;;12.45;3.10;;;18.80;94.10;;;;;;4131521;28;20042;-50
2023/07/20 02:18:59;;;;;;;10.32;3.08;;;18.70;94.10;;;;;;4130939;28;20094;-52
2023/07/20 02:21:03;;;;;;;5.47;2.63;;;18.70;94.20;;;;;;4131894;28;20056;-54
2023/07/20 02:23:05;;;;;;;6.65;3.00;;;18.70;94.30;;;;;;4131976;28;20485;-51
2023/07/20 02:25:08;;;;;;;6.63;2.80;;;18.70;94.20;;;;;;4128742;28;20149;-52
2023/07/20 02:27:10;;;;;;;7.70;3.03;;;18.70;94.40;;;;;;4131868;28;20046;-52
2023/07/20 02:29:12;;;;;;;5.45;2.60;;;18.70;94.30;;;;;;4131132;28;20061;-52
2023/07/20 02:31:15;;;;;;;8.18;2.60;;;18.70;94.30;;;;;;4131653;28;20137;-51
2023/07/20 02:33:17;;;;;;;6.28;3.00;;;18.70;94.50;;;;;;4131941;28;20038;-53
2023/07/20 02:35:19;;;;;;;7.97;2.88;;;18.70;94.50;;;;;;4131724;28;20446;-54
2023/07/20 02:37:23;;;;;;;9.65;3.58;;;18.70;94.30;;;;;;4131957;28;20042;-54
2023/07/20 02:39:26;;;;;;;8.38;2.60;;;18.70;94.40;;;;;;4130389;28;20050;-53
2023/07/20 02:41:28;;;;;;;6.05;2.80;;;18.70;94.50;;;;;;4131186;28;20044;-58
2023/07/20 02:43:31;;;;;;;7.72;2.75;;;18.70;94.60;;;;;;4131765;28;20042;-53
2023/07/20 02:45:33;;;;;;;10.20;3.20;;;18.70;94.40;;;;;;4131810;28;20089;-52
2023/07/20 02:47:35;;;;;;;11.52;3.05;;;18.80;94.60;;;;;;4115791;28;20055;-51
2023/07/20 02:49:37;;;;;;;8.02;2.92;;;18.70;94.60;;;;;;4121771;28;20046;-51
2023/07/20 02:51:39;;;;;;;9.13;3.30;;;18.70;94.70;;;;;;4131626;28;20051;-51
2023/07/20 02:53:43;;;;;;;8.13;3.72;;;18.70;94.90;;;;;;4131589;28;20161;-56
2023/07/20 02:55:47;;;;;;;8.05;3.05;;;18.70;94.90;;;;;;4131623;28;20071;-51
2023/07/20 02:57:50;;;;;;;6.35;2.63;;;18.60;95.00;;;;;;4131926;28;20137;-54
2023/07/20 02:59:52;;;;;;;7.70;2.88;;;18.60;94.70;;;;;;4129577;28;20453;-53
2023/07/20 03:01:54;;;;;;;9.40;3.83;;;18.60;95.00;;;;;;4115773;28;20226;-53
2023/07/20 03:03:56;;;;;;;9.85;3.50;;;18.60;95.30;;;;;;4114222;28;20121;-58
2023/07/20 03:05:59;;;;;;;7.07;2.90;;;18.60;95.10;;;;;;4115346;28;20050;-52
2023/07/20 03:08:03;;;;;;;7.47;3.00;;;18.60;95.00;;;;;;4115040;28;20042;-53
2023/07/20 03:10:09;;;;;;;9.65;3.55;;;18.60;95.00;;;;;;4115137;28;20126;-53
2023/07/20 03:12:11;;;;;;;10.15;3.30;;;18.60;95.20;;;;;;4120217;28;20046;-53
2023/07/20 03:14:13;;;;;;;10.63;3.40;;;18.60;95.00;;;;;;4099766;29;20530;-56
2023/07/20 03:16:19;;;;;;;6.63;2.70;;;18.60;95.20;;;;;;4112692;28;20072;-54
2023/07/20 03:18:22;;;;;;;7.40;2.78;;;18.60;95.10;;;;;;4113734;28;20054;-54
2023/07/20 03:20:25;;;;;;;6.43;2.78;;;18.60;95.10;;;;;;4115240;28;20077;-53
2023/07/20 03:22:27;;;;;;;10.20;3.03;;;18.50;95.30;;;;;;4119668;28;20039;-52
2023/07/20 03:24:29;;;;;;;10.32;3.45;;;18.50;95.20;;;;;;4115206;28;20062;-50
2023/07/20 03:26:33;;;;;;;7.43;3.25;;;18.50;95.30;;;;;;4115019;28;20058;-51
2023/07/20 03:28:35;;;;;;;10.00;3.47;;;18.50;95.40;;;;;;4114572;28;20074;-52
2023/07/20 03:30:37;;;;;;;9.77;3.63;;;18.60;95.50;;;;;;4115192;28;20046;-50
2023/07/20 03:32:39;;;;;;;7.28;3.15;;;18.50;95.40;;;;;;4115104;28;20147;-51
2023/07/20 03:34:41;;;;;;;7.75;2.67;;;18.50;95.30;;;;;;4115353;28;20051;-56
2023/07/20 03:36:43;;;;;;;7.50;3.28;;;18.50;95.30;;;;;;4120932;28;20073;-50
2023/07/20 03:38:45;;;;;;;8.45;2.97;;;18.50;95.40;;;;;;4114288;28;20130;-49
2023/07/20 03:40:51;;;;;;;9.48;3.00;;;18.60;95.30;;;;;;4114613;28;20061;-51
2023/07/20 03:42:55;;;;;;;10.43;2.88;;;18.50;95.40;;;;;;4114782;28;20047;-50
2023/07/20 03:44:57;;;;;;;7.07;2.97;;;18.50;95.30;;;;;;4114998;28;20046;-51
2023/07/20 03:46:59;;;;;;;9.25;3.28;;;18.60;95.30;;;;;;4113615;28;20816;-51
2023/07/20 03:49:01;;;;;;;8.65;3.33;;;18.50;95.30;;;;;;4115334;28;20070;-51
2023/07/20 03:51:04;;;;;;;9.10;3.40;;;18.50;95.40;;;;;;4117918;28;20047;-50
2023/07/20 03:53:06;;;;;;;10.93;3.33;;;18.50;95.40;;;;;;4117731;28;20057;-52
2023/07/20 03:55:10;;;;;;;7.30;2.80;;;18.50;95.30;;;;;;4117595;28;20133;-51
2023/07/20 03:57:11;;;;;;;8.98;2.92;;;18.50;95.50;;;;;;4117631;28;20043;-52
2023/07/20 03:59:15;;;;;;;8.50;2.80;;;18.50;95.60;;;;;;4124512;28;20085;-51
2023/07/20 04:01:17;;;;;;;7.70;2.85;;;18.50;95.60;;;;;;4134120;28;20553;-51
2023/07/20 04:03:19;;;;;;;12.00;3.15;;;18.40;95.60;;;;;;4134185;28;20441;-51
2023/07/20 04:05:22;;;;;;;10.63;3.55;;;18.40;95.60;;;;;;4134299;28;20105;-51
2023/07/20 04:07:24;;;;;;;9.82;3.60;;;18.40;95.50;;;;;;4134374;28;20042;-51
2023/07/20 04:09:26;;;;;;;9.52;3.40;;;18.40;95.60;;;;;;4132841;28;20600;-51
2023/07/20 04:11:28;;;;;;;11.02;3.40;;;18.40;95.50;;;;;;4133989;28;20073;-52
2023/07/20 04:13:34;;;;;;;10.38;3.22;;;18.50;95.40;;;;;;4116214;28;20436;-53
2023/07/20 04:15:37;;;;;;;9.85;3.60;;;18.50;95.50;;;;;;4117327;28;20430;-53
2023/07/20 04:17:40;;;;;;;10.73;3.50;;;18.40;95.50;;;;;;4125180;28;20125;-53
2023/07/20 04:19:42;;;;;;;8.23;3.10;;;18.40;95.60;;;;;;4132425;28;20077;-58
2023/07/20 04:21:44;;;;;;;7.28;3.50;;;18.40;95.60;;;;;;4133815;28;20052;-53
2023/07/20 04:23:47;;;;;;;7.38;3.47;;;18.40;95.60;;;;;;4132950;28;20077;-55
2023/07/20 04:25:49;;;;;;;8.10;3.42;;;18.40;95.40;;;;;;4133595;28;20064;-52
2023/07/20 04:27:51;;;;;;;9.07;3.60;;;18.40;95.50;;;;;;4133156;28;20051;-53
2023/07/20 04:29:53;;;;;;;8.98;3.70;;;18.40;95.70;;;;;;4132413;28;20049;-53
2023/07/20 04:31:57;;;;;;;6.53;2.67;;;18.40;95.70;;;;;;4133112;28;20074;-53
2023/07/20 04:33:59;;;;;;;8.52;3.35;;;18.40;95.70;;;;;;4133195;28;20054;-53
2023/07/20 04:36:01;;;;;;;10.25;3.70;;;18.40;95.80;;;;;;4116374;28;20051;-53
2023/07/20 04:38:03;;;;;;;9.65;3.30;;;18.40;96.00;;;;;;4134816;28;20047;-54
2023/07/20 04:40:08;;;;;;;8.35;3.38;;;18.40;96.10;;;;;;4134360;28;20150;-53
2023/07/20 04:42:10;;;;;;;11.52;3.17;;;18.50;96.10;;;;;;4134332;28;20050;-53
2023/07/20 04:44:13;;;;;;;9.25;4.13;;;18.50;95.90;;;;;;4133729;28;20134;-53
2023/07/20 04:46:17;;;;;;;10.30;3.53;;;18.50;95.90;;;;;;4133225;28;20082;-52
2023/07/20 04:48:21;;;;;;;10.33;3.90;;;18.50;96.30;;;;;;4132111;28;20141;-52
2023/07/20 04:50:25;;;;;;;7.22;2.92;;;18.60;96.10;;;;;;4122163;28;20122;-51
2023/07/20 04:52:27;;;;;;;11.50;3.63;;;18.60;95.90;;;;;;4132520;28;20148;-53
2023/07/20 04:54:43;;;;;;;10.95;3.30;;;18.60;96.00;;;;;;4131416;28;20102;-54
2023/07/20 04:56:45;;;;;;;7.65;3.08;;;18.60;96.00;;;;;;4132850;28;20105;-52
2023/07/20 04:58:49;;;;;;;10.25;3.00;;;18.60;96.30;;;;;;4131703;28;20117;-51
2023/07/20 05:00:52;;;;;;;8.32;3.55;;;18.60;96.10;;;;;;4131573;28;20409;-51
2023/07/20 05:02:54;;;;;;;11.60;3.95;;;18.50;96.60;;;;;;4132738;28;20043;-51
2023/07/20 05:04:57;;;;;;;10.65;3.90;;;18.50;96.50;;;;;;4132518;28;20042;-53
2023/07/20 05:06:59;;;;;;;11.43;3.60;;;18.50;96.50;;;;;;4132357;28;20116;-53
2023/07/20 05:09:02;;;;;;;8.73;3.22;;;18.50;96.50;;;;;;4131496;28;20070;-53
2023/07/20 05:11:04;;;;;;;8.43;3.05;;;18.50;96.60;;;;;;4120582;28;20057;-53
2023/07/20 05:13:06;;;;;;;8.75;3.33;;;18.60;96.40;;;;;;4133560;28;20042;-53
2023/07/20 05:15:09;;;;;;;8.00;3.63;;;18.60;96.50;;;;;;4132937;28;20056;-53
2023/07/20 05:17:11;;;;;;;10.90;3.90;;;18.60;96.40;;;;;;4131824;28;20133;-53
2023/07/20 05:19:13;;;;;;;12.27;3.45;;;18.60;96.50;;;;;;4131426;28;20054;-53
2023/07/20 05:21:17;;;;;;;8.48;3.00;;;18.70;96.20;;;;;;4132122;28;20049;-53
2023/07/20 05:23:19;;;;;;;9.45;3.42;;;18.70;96.10;;;;;;4132310;28;20129;-52
2023/07/20 05:25:22;;;;;;;10.80;3.17;;;18.70;96.30;;;;;;4131999;28;20050;-51
2023/07/20 05:27:24;;;;;;;11.90;3.28;;;18.70;96.40;;;;;;4132134;28;20039;-53
2023/07/20 05:29:26;;;;;;;9.57;3.10;;;18.70;96.30;;;;;;4130979;28;20038;-54
2023/07/20 05:31:30;;;;;;;11.93;3.05;;;18.70;96.50;;;;;;4131896;28;20070;-50
2023/07/20 05:33:33;;;;;;;10.73;3.28;;;18.70;96.30;;;;;;4132165;28;20466;-53
2023/07/20 05:35:36;;;;;;;7.78;3.15;;;18.70;96.30;;;;;;4131513;28;20046;-52
2023/07/20 05:37:39;;;;;;;7.95;2.60;;;18.70;96.10;;;;;;4132226;28;20501;-50
2023/07/20 05:39:41;;;;;;;10.90;3.60;;;18.70;96.20;;;;;;4131044;28;20050;-49
2023/07/20 05:41:43;;;;;;;9.48;3.05;;;18.70;96.20;;;;;;4132253;28;20129;-48
2023/07/20 05:43:46;;;;;;;8.43;3.03;;;18.70;96.20;;;;;;4130814;28;20582;-48
2023/07/20 05:45:48;;;;;;;10.27;3.35;;;18.80;96.00;;;;;;4130680;28;20137;-49
2023/07/20 05:47:50;;;;;;;12.18;3.70;;;18.80;96.10;;;;;;4132292;28;20049;-48
2023/07/20 05:49:52;;;;;;;6.07;2.75;;;18.80;96.30;;;;;;4130490;28;20130;-48
2023/07/20 05:51:54;;;;;;;10.93;3.17;;;18.80;96.00;;;;;;4130635;28;20052;-49
2023/07/20 05:53:58;;;;;;;11.32;3.22;;;18.80;95.80;;;;;;4131636;28;20556;-51
2023/07/20 05:56:00;;;;;;;11.18;3.50;;;18.80;95.90;;;;;;4131558;28;20541;-52
2023/07/20 05:58:04;;;;;;;5.95;2.80;;;18.90;95.90;;;;;;4131935;28;20050;-51
2023/07/20 06:00:07;;;;;;;10.27;2.97;;;18.90;95.80;;;;;;4130818;28;20050;-51
2023/07/20 06:02:09;;;;;;;14.70;3.65;;;18.90;95.70;;;;;;4134224;28;20050;-51
2023/07/20 06:04:11;;;;;;;11.75;2.95;;;18.90;95.70;;;;;;4131805;28;20092;-51
2023/07/20 06:06:14;;;;;;;10.98;3.58;;;18.80;95.70;;;;;;4131362;28;20038;-50
2023/07/20 06:08:17;;;;;;;9.30;3.03;;;18.90;95.60;;;;;;4131810;28;20045;-52
2023/07/20 06:10:21;;;;;;;10.20;2.97;;;18.90;95.60;;;;;;4130556;28;20054;-51
2023/07/20 06:12:23;;;;;;;12.00;3.38;;;18.90;95.50;;;;;;4131042;28;20059;-51
2023/07/20 06:14:25;;;;;;;7.07;2.88;;;19.00;95.40;;;;;;4130500;28;20490;-51
2023/07/20 06:16:27;;;;;;;10.77;3.78;;;19.00;95.50;;;;;;4131329;28;20060;-52
2023/07/20 06:18:30;;;;;;;8.68;4.15;;;18.90;95.50;;;;;;4131364;28;20046;-50
2023/07/20 06:20:32;;;;;;;8.38;3.13;;;19.00;95.30;;;;;;4113373;28;20146;-51
2023/07/20 06:22:34;;;;;;;12.57;3.65;;;19.00;95.30;;;;;;4131107;28;20470;-53
2023/07/20 06:24:36;;;;;;;11.60;3.83;;;19.00;95.40;;;;;;4131466;28;20046;-51
2023/07/20 06:26:40;;;;;;;19.58;4.70;;;18.90;95.80;;;;;;4131313;28;20052;-51
2023/07/20 06:28:42;;;;;;;10.13;3.80;;;19.00;95.40;;;;;;4130733;28;20042;-52
2023/07/20 06:30:44;;;;;;;9.45;4.10;;;19.00;95.40;;;;;;4131529;28;20057;-50
2023/07/20 06:32:47;;;;;;;8.18;4.50;;;19.00;95.40;;;;;;4131616;28;20093;-48
2023/07/20 06:34:49;;;;;;;10.88;4.07;;;19.00;95.20;;;;;;4131230;28;20054;-51
2023/07/20 06:36:51;;;;;;;9.88;4.30;;;19.00;95.20;;;;;;4131855;28;21333;-48
2023/07/20 06:38:53;;;;;;;11.18;4.68;;;19.00;95.40;;;;;;4130780;28;20070;-51
2023/07/20 06:40:58;;;;;;;14.25;5.88;;;19.10;95.10;;;;;;4131588;28;20073;-49
2023/07/20 06:43:22;;;;;;;9.38;5.22;;;19.10;95.20;;;;;;4131273;28;20065;-49
2023/07/20 06:45:26;;;;;;;10.05;4.28;;;19.10;95.30;;;;;;4131127;28;20516;-50
2023/07/20 06:47:29;;;;;;;16.05;5.18;;;19.10;95.30;;;;;;4130894;28;20057;-50
2023/07/20 06:49:31;;;;;;;12.38;4.32;;;19.10;95.30;;;;;;4129905;28;20042;-49
2023/07/20 06:51:33;;;;;;;16.10;4.32;;;19.10;95.40;;;;;;4131421;28;20070;-49
2023/07/20 06:53:35;;;;;;;11.90;4.97;;;19.10;95.40;;;;;;4130780;28;20050;-49
2023/07/20 06:55:37;;;;;;;13.25;4.78;;;19.10;95.40;;;;;;4131068;28;20078;-49
2023/07/20 06:57:44;;;;;;;12.73;5.70;;;19.20;95.30;;;;;;4131011;28;20046;-48
2023/07/20 06:59:51;;;;;;;12.45;5.32;;;19.20;95.30;;;;;;4130184;28;20224;-49
2023/07/20 07:01:53;;;;;;;10.88;5.45;;;19.30;95.20;;;;;;4130199;28;20195;-48
2023/07/20 07:03:55;;;;;;;11.10;5.00;;;19.30;95.20;;;;;;4131611;28;20046;-53
2023/07/20 07:05:57;;;;;;;12.65;5.32;;;19.30;94.90;;;;;;4132194;28;20042;-49
2023/07/20 07:07:59;;;;;;;13.40;6.00;;;19.30;95.10;;;;;;4131571;28;20042;-49
2023/07/20 07:10:04;;;;;;;9.98;4.82;;;19.40;95.20;;;;;;4119594;28;20038;-49
2023/07/20 07:12:07;;;;;;;17.98;5.50;;;19.50;94.90;;;;;;4131265;28;20049;-49
2023/07/20 07:14:09;;;;;;;13.57;4.53;;;19.60;94.70;;;;;;4130781;28;20104;-52
2023/07/20 07:16:18;;;;;;;13.90;5.80;;;19.80;94.30;;;;;;4131313;28;20050;-51
2023/07/20 07:18:21;;;;;;;14.55;4.70;;;19.90;94.20;;;;;;4130357;28;20042;-51
2023/07/20 07:20:23;;;;;;;9.77;5.30;;;20.10;94.10;;;;;;4130150;28;20046;-51
2023/07/20 07:22:26;;;;;;;11.98;5.28;;;20.20;93.90;;;;;;4131092;28;20054;-51
2023/07/20 07:24:33;;;;;;;13.98;5.50;;;20.40;93.70;;;;;;4132826;28;20070;-51
2023/07/20 07:26:35;;;;;;;16.80;5.80;;;20.40;93.40;;;;;;4134204;28;20625;-51
2023/07/20 07:28:38;;;;;;;14.13;5.88;;;20.50;93.40;;;;;;4133913;28;20125;-51
2023/07/20 07:30:40;;;;;;;11.55;5.70;;;20.70;93.20;;;;;;4133190;28;20050;-51
2023/07/20 07:32:43;;;;;;;16.00;5.47;;;20.80;92.80;;;;;;4133734;28;20426;-56
2023/07/20 07:34:49;;;;;;;11.73;5.57;;;21.10;92.70;;;;;;4133817;28;20050;-53
2023/07/20 07:36:51;;;;;;;10.80;5.35;;;21.10;92.40;;;;;;4133990;28;20050;-52
2023/07/20 07:38:53;;;;;;;12.40;5.50;;;21.20;92.40;;;;;;4133151;28;20050;-52
2023/07/20 07:40:58;;;;;;;13.98;5.78;;;21.20;92.10;;;;;;4133709;28;20105;-51
2023/07/20 07:43:00;;;;;;;11.15;6.18;;;21.20;91.90;;;;;;4134220;28;20141;-56
2023/07/20 07:45:03;;;;;;;12.77;6.57;;;21.30;92.00;;;;;;4133817;28;20046;-51
2023/07/20 07:47:05;;;;;;;14.85;5.82;;;21.30;91.80;;;;;;4133569;28;20038;-54
2023/07/20 07:49:09;;;;;;;16.17;6.00;;;21.30;91.80;;;;;;4132726;28;20049;-51
2023/07/20 07:51:13;;;;;;;16.63;7.60;;;21.40;91.60;;;;;;4133537;28;20042;-51
2023/07/20 07:53:15;;;;;;;24.05;10.57;;;21.30;91.50;;;;;;4133473;28;20044;-51
2023/07/20 07:55:17;;;;;;;19.02;9.00;;;21.50;91.80;;;;;;4137151;28;20042;-51
2023/07/20 07:57:20;;;;;;;16.95;6.28;;;21.40;91.60;;;;;;4133714;28;20050;-52
2023/07/20 07:59:22;;;;;;;19.45;6.75;;;21.50;91.60;;;;;;4132351;28;20414;-51
2023/07/20 08:01:25;;;;;;;16.05;5.60;;;21.70;91.50;;;;;;4133103;28;21394;-51
2023/07/20 08:03:27;;;;;;;8.20;4.80;;;21.70;91.10;;;;;;4133391;28;20123;-50
2023/07/20 08:05:30;;;;;;;12.52;5.57;;;21.80;91.20;;;;;;4133523;28;20042;-51
2023/07/20 08:07:33;;;;;;;11.73;3.92;;;21.80;91.10;;;;;;4133775;28;20046;-59
2023/07/20 08:09:35;;;;;;;12.65;4.32;;;21.80;90.90;;;;;;4132569;28;20058;-52
2023/07/20 08:11:39;;;;;;;9.52;3.88;;;21.80;90.70;;;;;;4129645;28;20049;-51
2023/07/20 08:13:41;;;;;;;7.32;3.17;;;21.80;90.60;;;;;;4133455;28;20058;-51
2023/07/20 08:15:51;;;;;;;9.18;4.00;;;21.90;90.50;;;;;;4132811;28;20042;-51
2023/07/20 08:17:54;;;;;;;13.05;3.75;;;22.00;90.40;;;;;;4133261;28;20038;-52
2023/07/20 08:19:56;;;;;;;7.95;3.95;;;22.10;90.30;;;;;;4132382;28;20046;-51
2023/07/20 08:22:00;;;;;;;15.25;3.70;;;22.20;90.10;;;;;;4112281;28;20091;-51
2023/07/20 08:24:03;;;;;;;7.97;3.00;;;22.20;90.10;;;;;;4116357;28;20046;-56
2023/07/20 08:26:06;;;;;;;10.77;4.07;;;22.30;89.30;;;;;;4137434;28;20038;-51
2023/07/20 08:28:09;;;;;;;8.43;3.38;;;22.40;88.70;;;;;;4127035;28;20057;-50
2023/07/20 08:30:11;;;;;;;13.60;3.63;;;22.50;88.90;;;;;;4131850;28;20104;-51
2023/07/20 08:32:14;;;;;;;8.80;3.67;;;22.40;88.60;;;;;;4133056;28;20078;-54
2023/07/20 08:34:16;;;;;;;10.05;3.92;;;22.40;87.90;;;;;;4133118;28;20038;-52
2023/07/20 08:36:32;;;;;;;6.20;2.83;;;22.40;88.10;;;;;;4132880;28;20050;-51
2023/07/20 08:38:36;;;;;;;14.90;3.70;;;22.50;87.70;;;;;;4133082;28;20043;-51
2023/07/20 08:40:42;;;;;;;12.15;3.08;;;22.50;87.60;;;;;;4131858;28;20418;-51
2023/07/20 08:42:45;;;;;;;8.70;2.60;;;22.50;87.20;;;;;;4130081;28;20051;-51
2023/07/20 08:44:48;;;;;;;8.70;2.50;;;22.60;87.20;;;;;;4133042;28;20457;-53
2023/07/20 08:46:52;;;;;;;5.45;2.88;;;22.80;86.20;;;;;;4133645;28;20049;-50
2023/07/20 08:48:56;;;;;;;7.43;2.55;;;22.70;85.30;;;;;;4133638;28;20057;-52
2023/07/20 08:51:00;;;;;;;7.88;2.70;;;22.70;85.00;;;;;;4132564;28;20421;-51
2023/07/20 08:53:02;;;;;;;9.80;2.93;;;22.80;85.50;;;;;;4129726;28;20073;-51
2023/07/20 08:55:07;;;;;;;6.28;2.50;;;22.90;84.60;;;;;;4132713;28;20450;-51
2023/07/20 08:57:14;;;;;;;5.30;2.25;;;23.00;83.80;;;;;;4132520;28;20038;-51
2023/07/20 08:59:18;;;;;;;16.33;2.95;;;23.00;83.30;;;;;;4132593;28;20058;-58
2023/07/20 09:01:21;;;;;;;9.15;2.83;;;23.00;84.00;;;;;;4115862;28;20506;-51
2023/07/20 09:03:24;;;;;;;11.77;3.08;;;23.00;84.40;;;;;;4131733;28;20050;-51
2023/07/20 09:05:26;;;;;;;4.30;2.33;;;23.00;84.60;;;;;;4133231;28;20046;-51
2023/07/20 09:07:29;;;;;;;10.30;3.20;;;23.00;83.90;;;;;;4131683;28;20042;-53
2023/07/20 09:09:31;;;;;;;7.28;2.90;;;23.10;84.10;;;;;;4130580;28;20081;-51
2023/07/20 09:11:34;;;;;;;5.57;2.47;;;23.20;83.80;;;;;;4132160;28;20566;-52
2023/07/20 09:13:37;;;;;;;4.88;2.00;;;23.10;81.50;;;;;;4131890;28;20046;-51
2023/07/20 09:15:45;;;;;;;5.63;1.95;;;23.00;82.40;;;;;;4132481;28;20053;-51
2023/07/20 09:17:49;;;;;;;3.75;1.80;;;23.20;82.10;;;;;;4132124;28;20049;-51
2023/07/20 09:19:51;;;;;;;6.15;2.30;;;23.30;81.70;;;;;;4131577;28;20402;-51
2023/07/20 09:21:53;;;;;;;6.03;2.38;;;23.30;81.80;;;;;;4132145;28;20046;-52
2023/07/20 09:23:56;;;;;;;6.32;2.65;;;23.40;82.10;;;;;;4132479;28;20053;-52
2023/07/20 09:25:59;;;;;;;6.43;2.67;;;23.40;82.50;;;;;;4131025;28;20057;-50
2023/07/20 09:28:04;;;;;;;6.10;2.40;;;23.40;81.90;;;;;;4132205;28;20082;-52
2023/07/20 09:30:09;;;;;;;5.70;1.95;;;23.50;82.20;;;;;;4131386;28;20047;-50
2023/07/20 09:32:11;;;;;;;5.55;2.05;;;23.60;80.60;;;;;;4115041;28;20414;-52
2023/07/20 09:34:26;;;;;;;3.47;1.73;;;23.60;80.80;;;;;;4132151;28;20042;-49
2023/07/20 09:36:34;;;;;;;4.32;1.83;;;23.80;80.50;;;;;;4132592;28;20050;-49
2023/07/20 09:38:41;;;;;;;3.90;1.80;;;24.00;80.10;;;;;;4132035;28;20050;-50
2023/07/20 09:40:46;;;;;;;7.90;2.50;;;24.00;78.60;;;;;;4131563;28;20050;-49
2023/07/20 09:42:59;;;;;;;11.50;1.95;;;23.90;78.60;;;;;;4131764;28;20548;-51
2023/07/20 09:45:09;;;;;;;5.25;2.00;;;23.90;78.60;;;;;;4132083;28;20420;-52
2023/07/20 09:47:11;;;;;;;4.88;1.83;;;23.90;79.50;;;;;;4131654;28;20077;-50
2023/07/20 09:49:14;;;;;;;5.40;1.80;;;24.00;78.10;;;;;;4131850;28;20042;-52
2023/07/20 09:51:20;;;;;;;8.05;2.03;;;23.90;78.30;;;;;;4131651;28;20046;-49
2023/07/20 09:53:24;;;;;;;4.13;1.80;;;24.00;78.10;;;;;;4131649;28;20101;-49
2023/07/20 09:55:27;;;;;;;3.35;1.60;;;24.10;76.80;;;;;;4131986;28;20440;-49
2023/07/20 09:57:30;;;;;;;7.78;1.40;;;24.30;75.30;;;;;;4131906;28;20073;-48
2023/07/20 09:59:32;;;;;;;3.95;1.45;;;24.20;73.00;;;;;;4130405;28;20059;-49
2023/07/20 10:01:39;;;;;;;5.60;1.95;;;24.40;75.00;;;;;;4131673;28;20117;-49
2023/07/20 10:03:47;;;;;;;6.25;2.45;;;24.50;73.70;;;;;;4120361;28;20465;-49
2023/07/20 10:06:04;;;;;;;6.68;1.52;;;24.50;74.90;;;;;;4121647;28;20138;-49
2023/07/20 10:08:10;;;;;;;4.45;1.80;;;24.70;73.90;;;;;;4131660;28;20064;-50
2023/07/20 10:10:17;;;;;;;6.72;1.80;;;24.70;73.00;;;;;;4112939;28;20142;-50
2023/07/20 10:12:23;;;;;;;2.95;1.52;;;24.80;73.80;;;;;;4131535;28;20116;-49
2023/07/20 10:14:31;;;;;;;3.05;1.65;;;24.80;71.90;;;;;;4131478;28;20042;-49
2023/07/20 10:16:39;;;;;;;5.75;1.75;;;25.00;72.00;;;;;;4127587;28;20042;-49
2023/07/20 10:18:49;;;;;;;5.63;1.50;;;25.10;73.30;;;;;;4129982;28;20046;-49
2023/07/20 10:20:54;;;;;;;3.70;1.35;;;25.10;73.30;;;;;;4121439;28;20146;-49
2023/07/20 10:23:00;;;;;;;3.67;1.48;;;25.00;70.90;;;;;;4131407;28;20053;-52
2023/07/20 10:25:04;;;;;;;4.63;1.30;;;25.00;70.70;;;;;;4129660;28;20521;-51
2023/07/20 10:27:07;;;;;;;2.78;1.45;;;25.00;71.00;;;;;;4130935;28;20046;-51
2023/07/20 10:29:09;;;;;;;6.68;1.60;;;25.10;71.60;;;;;;4131217;28;20050;-53
2023/07/20 10:31:13;;;;;;;7.72;2.17;;;24.90;71.50;;;;;;4119445;28;20086;-51
2023/07/20 10:33:19;;;;;;;4.75;1.55;;;24.80;71.40;;;;;;4130661;28;20445;-51
2023/07/20 10:35:21;;;;;;;4.80;2.00;;;24.80;71.30;;;;;;4127986;28;20042;-48
2023/07/20 10:37:46;;;;;;;6.25;1.88;;;24.70;71.30;;;;;;4130947;28;20049;-50
2023/07/20 10:39:48;;;;;;;8.52;2.50;;;24.70;71.60;;;;;;4116662;28;20092;-51
2023/07/20 10:41:59;;;;;;;5.65;1.90;;;24.80;71.60;;;;;;4130883;28;20093;-52